Time;durP1;ratioP1;P1;durP2;ratioP2;P2;SDS_P1;SDS_P2;PMS_P1;PMS_P2;Temp;Humidity;BMP_temperature;BMP_pressure;BME280_temperature;BME280_humidity;BME280_pressure;Samples;Min_cycle;Max_cycle;Signal;HPM_P1;HPM_P2
2023/05/14 00:01:54;;;;;;;9.45;2.90;;;;;;;13.15;74.39;100209.19;5074693;28;20099;-72
2023/05/14 00:04:20;;;;;;;6.70;3.10;;;;;;;13.17;74.59;100201.22;5074419;28;20052;-71
2023/05/14 00:06:45;;;;;;;8.30;2.97;;;;;;;13.17;74.40;100201.22;5080826;28;20020;-71
2023/05/14 00:09:12;;;;;;;7.97;3.30;;;;;;;13.18;74.45;100198.56;5081616;28;20020;-71
2023/05/14 00:11:37;;;;;;;7.83;3.23;;;;;;;13.17;74.60;100195.94;5095127;28;20030;-71
2023/05/14 00:14:03;;;;;;;9.65;3.38;;;;;;;13.16;74.68;100194.19;5078080;28;20551;-71
2023/05/14 00:16:28;;;;;;;10.37;3.80;;;;;;;13.14;74.92;100190.69;5074714;28;20043;-71
2023/05/14 00:18:53;;;;;;;8.63;3.83;;;;;;;13.14;74.89;100194.22;5076124;28;20026;-70
2023/05/14 00:21:19;;;;;;;9.37;3.80;;;;;;;13.11;75.28;100188.13;5076142;28;20025;-71
2023/05/14 00:23:45;;;;;;;9.77;3.75;;;;;;;13.12;75.41;100188.06;5076206;28;20485;-71
2023/05/14 00:26:10;;;;;;;9.63;3.70;;;;;;;13.10;75.50;100186.38;5075926;28;20104;-71
2023/05/14 00:28:35;;;;;;;6.20;3.20;;;;;;;13.11;75.33;100186.31;5076370;28;20103;-71
2023/05/14 00:31:01;;;;;;;9.18;3.50;;;;;;;13.10;75.34;100176.66;5082187;28;20446;-72
2023/05/14 00:33:26;;;;;;;9.43;3.70;;;;;;;13.10;75.47;100183.72;5075978;28;20504;-71
2023/05/14 00:35:52;;;;;;;10.20;3.60;;;;;;;13.08;75.52;100189.03;5081935;28;20392;-72
2023/05/14 00:38:18;;;;;;;8.38;3.45;;;;;;;13.09;75.67;100180.19;5096279;28;20104;-71
2023/05/14 00:40:49;;;;;;;10.57;3.47;;;;;;;13.10;75.53;100179.28;5090854;28;20100;-71
2023/05/14 00:43:16;;;;;;;8.23;3.55;;;;;;;13.09;75.56;100174.91;5076113;28;20174;-71
2023/05/14 00:45:41;;;;;;;6.53;3.30;;;;;;;13.09;75.56;100174.91;5074515;28;20027;-70
2023/05/14 00:48:07;;;;;;;7.43;3.30;;;;;;;13.11;75.93;100170.47;5094399;28;20048;-71
2023/05/14 00:50:33;;;;;;;10.68;3.70;;;;;;;13.10;75.99;100163.44;5096805;28;20030;-71
2023/05/14 00:52:59;;;;;;;6.67;3.00;;;;;;;13.10;75.95;100167.84;5100105;28;20036;-70
2023/05/14 00:55:25;;;;;;;11.27;2.88;;;;;;;13.14;75.89;100158.97;5099113;28;20031;-70
2023/05/14 00:57:52;;;;;;;7.95;3.22;;;;;;;13.14;75.80;100149.28;5095757;28;20488;-71
2023/05/14 01:00:17;;;;;;;8.32;3.30;;;;;;;13.15;75.67;100158.06;5083545;28;20020;-71
2023/05/14 01:02:43;;;;;;;7.50;3.40;;;;;;;13.17;76.10;100154.53;5078001;28;20496;-71
2023/05/14 01:05:08;;;;;;;7.57;3.60;;;;;;;13.13;75.97;100147.50;5081915;28;20020;-71
2023/05/14 01:08:05;;;;;;;6.45;3.30;;;;;;;13.14;76.16;100148.41;5079294;28;20024;-72
2023/05/14 01:10:44;;;;;;;7.22;3.40;;;;;;;13.13;75.84;100144.88;5091800;28;20043;-71
2023/05/14 01:13:21;;;;;;;8.13;3.60;;;;;;;13.13;76.07;100142.22;5089902;28;20020;-71
2023/05/14 01:15:47;;;;;;;6.97;3.42;;;;;;;13.14;76.13;100145.75;5077811;28;20028;-71
2023/05/14 01:18:16;;;;;;;8.02;3.50;;;;;;;13.17;75.90;100143.06;5078870;28;20073;-71
2023/05/14 01:20:43;;;;;;;8.18;3.60;;;;;;;13.18;76.01;100145.69;5079069;28;20025;-72
2023/05/14 01:23:08;;;;;;;9.60;3.72;;;;;;;13.17;76.07;100149.22;5078884;28;20418;-72
2023/05/14 01:25:34;;;;;;;7.13;3.60;;;;;;;13.19;76.05;100142.16;5078834;28;20027;-72
2023/05/14 01:28:14;;;;;;;6.63;3.87;;;;;;;13.17;76.04;100143.94;5077639;28;20024;-71
2023/05/14 01:31:00;;;;;;;11.05;4.15;;;;;;;13.16;76.26;100131.63;5082444;28;20025;-72
2023/05/14 01:33:35;;;;;;;12.70;4.38;;;;;;;13.17;76.26;100138.66;5088586;28;20020;-72
2023/05/14 01:36:01;;;;;;;8.38;3.80;;;;;;;13.16;76.34;100136.03;5078667;28;20093;-71
2023/05/14 01:38:30;;;;;;;8.20;4.27;;;;;;;13.10;76.39;100126.41;5084267;28;20543;-72
2023/05/14 01:40:56;;;;;;;9.88;4.30;;;;;;;13.10;76.24;100130.84;5091860;28;20553;-72
2023/05/14 01:43:22;;;;;;;7.75;4.18;;;;;;;13.10;76.55;100123.78;5089219;28;20032;-72
2023/05/14 01:45:48;;;;;;;7.93;4.18;;;;;;;13.09;76.57;100129.09;5098678;28;20073;-72
2023/05/14 01:48:14;;;;;;;8.03;4.50;;;;;;;13.09;76.68;100129.09;5098570;28;20047;-72
2023/05/14 01:50:39;;;;;;;8.27;3.92;;;;;;;13.10;76.61;100125.56;5098639;28;20054;-72
2023/05/14 01:53:05;;;;;;;9.17;4.60;;;;;;;13.09;76.79;100118.53;5098892;28;20027;-72
2023/05/14 01:55:30;;;;;;;9.27;4.68;;;;;;;13.05;76.68;100123.88;5098560;28;20388;-72
2023/05/14 01:57:56;;;;;;;10.13;4.63;;;;;;;13.04;76.73;100121.25;5094550;28;20426;-72
2023/05/14 02:00:24;;;;;;;8.37;4.53;;;;;;;13.04;76.87;100116.84;5098408;28;20020;-72
2023/05/14 02:02:49;;;;;;;9.88;4.57;;;;;;;13.06;76.76;100114.16;5097356;28;20027;-72
2023/05/14 02:05:14;;;;;;;8.23;4.83;;;;;;;13.07;76.63;100105.31;5092632;28;20024;-72
2023/05/14 02:07:40;;;;;;;8.83;4.63;;;;;;;13.05;76.93;100105.38;5078316;28;20029;-72
2023/05/14 02:10:07;;;;;;;9.13;5.30;;;;;;;13.04;76.98;100111.56;5085900;28;20415;-72
2023/05/14 02:12:33;;;;;;;10.57;5.17;;;;;;;13.02;76.82;100096.59;5092680;28;20263;-72
2023/05/14 02:14:58;;;;;;;10.52;5.05;;;;;;;13.01;76.91;100095.72;5077860;28;20400;-72
2023/05/14 02:17:25;;;;;;;8.83;5.07;;;;;;;13.01;76.94;100100.16;5078137;28;20060;-72
2023/05/14 02:19:51;;;;;;;12.07;5.43;;;;;;;12.98;76.81;100101.06;5077758;28;20021;-72
2023/05/14 02:22:17;;;;;;;9.75;4.85;;;;;;;12.97;76.76;100099.31;5077755;28;20054;-72
2023/05/14 02:24:42;;;;;;;10.97;5.47;;;;;;;12.95;77.21;100089.69;5077679;28;20022;-73
2023/05/14 02:27:07;;;;;;;11.60;5.40;;;;;;;12.91;77.00;100092.38;5066840;28;20498;-73
2023/05/14 02:29:34;;;;;;;9.53;5.37;;;;;;;12.90;76.99;100098.56;5077731;28;20024;-72
2023/05/14 02:32:00;;;;;;;8.25;4.85;;;;;;;12.89;76.96;100095.94;5088699;28;20028;-72
2023/05/14 02:34:25;;;;;;;8.50;5.10;;;;;;;12.87;77.07;100082.75;5080430;28;20031;-72
2023/05/14 02:36:50;;;;;;;12.45;5.20;;;;;;;12.88;77.14;100094.19;5076357;28;20366;-72
2023/05/14 02:39:16;;;;;;;10.53;5.47;;;;;;;12.86;77.15;100096.84;5089509;28;20484;-72
2023/05/14 02:41:41;;;;;;;12.87;5.33;;;;;;;12.87;77.10;100101.22;5087520;28;20050;-72
2023/05/14 02:44:07;;;;;;;12.77;5.90;;;;;;;12.88;77.12;100102.97;5077326;28;20021;-72
2023/05/14 02:46:32;;;;;;;12.10;5.45;;;;;;;12.87;77.32;100101.22;5077663;28;20063;-72
2023/05/14 02:48:58;;;;;;;12.83;5.40;;;;;;;12.85;77.53;100102.19;5076993;28;20052;-72
2023/05/14 02:51:24;;;;;;;12.80;5.70;;;;;;;12.85;77.40;100100.41;5077377;28;20025;-72
2023/05/14 02:53:49;;;;;;;9.95;5.28;;;;;;;12.87;77.17;100098.59;5080553;28;20494;-72
2023/05/14 02:56:15;;;;;;;9.27;5.13;;;;;;;12.87;77.14;100098.59;5097830;28;20016;-72
2023/05/14 02:58:40;;;;;;;11.45;5.55;;;;;;;12.89;77.15;100104.72;5094305;28;20051;-72
2023/05/14 03:01:06;;;;;;;11.77;5.70;;;;;;;12.88;77.39;100100.34;5077281;28;20032;-72
2023/05/14 03:03:33;;;;;;;10.10;5.53;;;;;;;12.86;77.44;100096.84;5076792;28;20032;-72
2023/05/14 03:05:58;;;;;;;9.77;5.50;;;;;;;12.86;77.49;100096.84;5079115;28;20024;-72
2023/05/14 03:08:23;;;;;;;11.30;5.37;;;;;;;12.87;77.59;100093.31;5077015;28;20024;-72
2023/05/14 03:10:49;;;;;;;10.57;5.40;;;;;;;12.85;77.53;100092.47;5093224;28;20288;-72
2023/05/14 03:13:16;;;;;;;10.73;5.80;;;;;;;12.86;77.49;100085.44;5086703;28;20017;-72
2023/05/14 03:15:46;;;;;;;10.25;5.13;;;;;;;12.86;77.31;100086.28;5075513;28;20028;-72
2023/05/14 03:18:12;;;;;;;8.43;5.10;;;;;;;12.88;77.51;100094.19;5076719;28;20033;-72
2023/05/14 03:20:38;;;;;;;11.73;4.93;;;;;;;12.87;77.70;100095.94;5077057;28;20150;-74
2023/05/14 03:23:04;;;;;;;10.57;6.15;;;;;;;12.85;77.97;100097.75;5076769;28;20020;-72
2023/05/14 03:25:29;;;;;;;9.43;5.07;;;;;;;12.85;77.66;100095.09;5077043;28;20384;-72
2023/05/14 03:27:55;;;;;;;8.07;4.67;;;;;;;12.84;77.69;100097.78;5076745;28;20267;-72
2023/05/14 03:30:20;;;;;;;8.40;4.73;;;;;;;12.83;77.84;100093.41;5076799;28;20107;-72
2023/05/14 03:32:46;;;;;;;8.53;4.20;;;;;;;12.84;77.68;100085.44;5095115;28;20472;-72
2023/05/14 03:35:11;;;;;;;8.00;4.45;;;;;;;12.82;77.59;100083.72;5096774;28;20047;-72
2023/05/14 03:37:37;;;;;;;11.33;4.60;;;;;;;12.83;77.66;100086.34;5096879;28;20417;-72
2023/05/14 03:40:02;;;;;;;9.00;4.47;;;;;;;12.80;77.77;100085.53;5093463;28;20030;-72
2023/05/14 03:42:28;;;;;;;9.38;5.18;;;;;;;12.81;78.13;100079.34;5080902;28;20090;-73
2023/05/14 03:44:53;;;;;;;9.67;4.30;;;;;;;12.82;77.45;100081.09;5076780;28;20031;-72
2023/05/14 03:47:19;;;;;;;10.90;4.45;;;;;;;12.81;77.88;100085.50;5076689;28;20048;-72
2023/05/14 03:49:44;;;;;;;7.60;4.00;;;;;;;12.81;78.02;100087.28;5075751;28;20175;-72
2023/05/14 03:52:10;;;;;;;7.13;4.17;;;;;;;12.82;77.46;100089.03;5081069;28;20112;-72
2023/05/14 03:54:37;;;;;;;11.07;4.30;;;;;;;12.80;78.01;100086.38;5076706;28;20028;-72
2023/05/14 03:57:02;;;;;;;8.00;4.40;;;;;;;12.83;78.13;100086.34;5089228;28;20016;-72
2023/05/14 03:59:28;;;;;;;8.02;4.18;;;;;;;12.83;77.92;100086.34;5075287;28;20039;-72
2023/05/14 04:01:53;;;;;;;8.47;4.67;;;;;;;12.83;77.97;100080.19;5076323;28;20052;-72
2023/05/14 04:04:19;;;;;;;8.13;4.27;;;;;;;12.84;77.91;100087.22;5076294;28;20493;-72
2023/05/14 04:06:44;;;;;;;8.25;4.75;;;;;;;12.85;78.00;100087.19;5079161;28;20024;-72
2023/05/14 04:09:09;;;;;;;9.67;4.40;;;;;;;12.87;77.59;100092.44;5079061;28;20078;-72
2023/05/14 04:11:36;;;;;;;9.43;4.27;;;;;;;12.89;77.71;100090.66;5096672;28;20106;-72
2023/05/14 04:14:02;;;;;;;6.97;4.10;;;;;;;12.91;77.31;100092.38;5079917;28;20050;-72
2023/05/14 04:16:27;;;;;;;8.97;4.43;;;;;;;12.91;77.49;100094.16;5076233;28;20032;-72
2023/05/14 04:18:52;;;;;;;8.70;3.97;;;;;;;12.89;77.50;100088.88;5075099;28;20028;-72
2023/05/14 04:21:18;;;;;;;8.03;3.93;;;;;;;12.85;77.58;100092.47;5076343;28;20306;-72
2023/05/14 04:23:43;;;;;;;7.47;4.07;;;;;;;12.83;77.84;100096.91;5076323;28;20028;-72
2023/05/14 04:26:09;;;;;;;6.87;4.07;;;;;;;12.82;77.86;100091.66;5077776;28;20061;-73
2023/05/14 04:28:34;;;;;;;8.88;4.20;;;;;;;12.79;77.94;100097.84;5089238;28;20469;-72
2023/05/14 04:31:00;;;;;;;7.27;3.60;;;;;;;12.78;77.71;100086.44;5103214;28;20024;-72
2023/05/14 04:33:26;;;;;;;6.20;3.60;;;;;;;12.79;77.69;100100.50;5100438;28;20020;-72
2023/05/14 04:35:52;;;;;;;7.65;3.80;;;;;;;12.79;77.58;100105.78;5100222;28;20102;-72
2023/05/14 04:38:18;;;;;;;6.57;3.67;;;;;;;12.78;77.69;100104.03;5100352;28;20032;-72
2023/05/14 04:40:43;;;;;;;7.20;3.73;;;;;;;12.79;77.52;100105.78;5094118;28;20365;-72
2023/05/14 04:43:09;;;;;;;7.43;4.25;;;;;;;12.80;77.55;100112.81;5079871;28;20024;-72
2023/05/14 04:45:35;;;;;;;8.07;4.00;;;;;;;12.79;77.53;100105.78;5079695;28;20025;-72
2023/05/14 04:48:01;;;;;;;8.70;4.28;;;;;;;12.78;77.85;100119.91;5079373;28;20087;-72
2023/05/14 04:50:26;;;;;;;8.37;4.27;;;;;;;12.79;77.64;100121.63;5083589;28;20016;-72
2023/05/14 04:52:52;;;;;;;8.45;4.05;;;;;;;12.79;77.30;100119.00;5079874;28;20016;-72
2023/05/14 04:55:17;;;;;;;6.33;3.87;;;;;;;12.80;77.51;100123.38;5079993;28;20456;-72
2023/05/14 04:57:42;;;;;;;6.57;3.93;;;;;;;12.81;77.57;100116.34;5092509;28;20103;-72
2023/05/14 05:00:09;;;;;;;7.43;3.80;;;;;;;12.84;77.38;100109.22;5078475;28;20029;-72
2023/05/14 05:02:35;;;;;;;7.73;3.50;;;;;;;12.86;77.44;100115.34;5079611;28;20025;-72
2023/05/14 05:05:00;;;;;;;7.10;3.70;;;;;;;12.86;77.37;100111.84;5082817;28;20031;-72
2023/05/14 05:07:26;;;;;;;7.55;3.88;;;;;;;12.87;77.29;100116.25;5079703;28;20025;-72
2023/05/14 05:09:51;;;;;;;6.37;3.07;;;;;;;12.86;77.15;100117.13;5087740;28;20484;-72
2023/05/14 05:12:17;;;;;;;6.33;2.87;;;;;;;12.85;77.31;100115.38;5096240;28;20031;-72
2023/05/14 05:14:42;;;;;;;6.80;3.55;;;;;;;12.85;77.16;100126.81;5079271;28;20016;-73
2023/05/14 05:17:08;;;;;;;7.10;3.53;;;;;;;12.86;77.05;100131.22;5079208;28;20021;-72
2023/05/14 05:19:33;;;;;;;7.03;3.73;;;;;;;12.85;77.06;100128.59;5078980;28;20768;-72
2023/05/14 05:21:58;;;;;;;6.80;3.60;;;;;;;12.85;77.15;100129.47;5079072;28;20031;-72
2023/05/14 05:24:24;;;;;;;6.68;3.50;;;;;;;12.84;76.92;100130.34;5084011;28;20928;-71
2023/05/14 05:26:50;;;;;;;7.30;3.37;;;;;;;12.87;77.17;100135.59;5079122;28;20028;-72
2023/05/14 05:29:16;;;;;;;8.30;3.85;;;;;;;12.89;76.94;100139.06;5096971;28;20024;-72
2023/05/14 05:31:42;;;;;;;6.33;3.33;;;;;;;12.94;76.96;100138.16;5093934;28;20043;-72
2023/05/14 05:34:07;;;;;;;6.78;3.28;;;;;;;12.95;76.73;100147.84;5077411;28;20016;-72
2023/05/14 05:36:33;;;;;;;8.33;3.70;;;;;;;12.95;76.89;100148.69;5079023;28;20089;-72
2023/05/14 05:38:59;;;;;;;6.80;3.35;;;;;;;12.97;76.44;100151.31;5087797;28;20101;-72
2023/05/14 05:41:25;;;;;;;6.77;3.40;;;;;;;12.96;76.80;100158.38;5088978;28;20030;-72
2023/05/14 05:43:51;;;;;;;8.85;3.42;;;;;;;12.95;76.87;100168.97;5088343;28;20028;-72
2023/05/14 05:46:18;;;;;;;6.83;3.13;;;;;;;12.94;76.64;100172.53;5078842;28;20025;-72
2023/05/14 05:48:43;;;;;;;5.30;3.08;;;;;;;12.91;76.71;100169.03;5078266;28;20048;-72
2023/05/14 05:51:09;;;;;;;6.37;3.10;;;;;;;12.90;76.80;100167.28;5091082;28;20507;-72
2023/05/14 05:53:34;;;;;;;6.10;3.00;;;;;;;12.91;76.83;100174.31;5098861;28;20012;-72
2023/05/14 05:56:00;;;;;;;7.70;3.27;;;;;;;12.89;76.90;100169.94;5098715;28;20020;-72
2023/05/14 05:58:25;;;;;;;7.23;3.10;;;;;;;12.89;76.77;100165.50;5084685;28;20024;-72
2023/05/14 06:00:52;;;;;;;5.75;3.17;;;;;;;12.90;76.93;100172.56;5077008;28;20040;-72
2023/05/14 06:03:17;;;;;;;7.05;3.60;;;;;;;12.93;77.14;100176.91;5078054;28;20031;-72
2023/05/14 06:05:43;;;;;;;6.53;3.07;;;;;;;12.92;76.80;100176.06;5080731;28;20029;-72
2023/05/14 06:08:08;;;;;;;7.90;3.57;;;;;;;12.95;76.85;100176.91;5078278;28;20437;-73
2023/05/14 06:10:35;;;;;;;6.50;3.23;;;;;;;12.96;76.90;100171.59;5091074;28;20047;-72
2023/05/14 06:13:00;;;;;;;8.00;3.80;;;;;;;12.98;77.03;100163.66;5090171;28;20020;-73
2023/05/14 06:15:26;;;;;;;6.88;3.88;;;;;;;12.97;77.06;100169.81;5077986;28;20039;-72
2023/05/14 06:17:51;;;;;;;7.27;3.83;;;;;;;12.98;76.99;100168.94;5077757;28;20020;-72
2023/05/14 06:20:17;;;;;;;8.37;4.03;;;;;;;12.98;76.96;100169.78;5076781;28;20051;-72
2023/05/14 06:22:43;;;;;;;9.23;4.63;;;;;;;13.03;76.93;100172.38;5077967;28;20079;-73
2023/05/14 06:25:09;;;;;;;7.80;3.90;;;;;;;13.02;77.16;100171.50;5079932;28;20032;-72
2023/05/14 06:27:35;;;;;;;8.38;4.15;;;;;;;13.05;77.16;100174.09;5090366;28;20016;-72
2023/05/14 06:30:00;;;;;;;7.40;4.32;;;;;;;13.09;77.36;100171.41;5097959;28;20381;-72
2023/05/14 06:32:26;;;;;;;8.20;4.70;;;;;;;13.14;77.18;100170.44;5086886;28;20031;-72
2023/05/14 06:34:51;;;;;;;8.37;4.17;;;;;;;13.19;77.01;100171.22;5077924;28;20028;-73
2023/05/14 06:37:17;;;;;;;8.25;4.28;;;;;;;13.26;76.70;100173.75;5077720;28;20078;-73
2023/05/14 06:39:48;;;;;;;9.30;4.90;;;;;;;13.33;76.73;100175.41;5089637;28;20032;-72
2023/05/14 06:42:17;;;;;;;10.93;5.57;;;;;;;13.37;76.92;100163.00;5083270;28;20032;-72
2023/05/14 06:44:43;;;;;;;11.75;5.20;;;;;;;13.41;76.64;100162.94;5077706;28;20059;-72
2023/05/14 06:47:09;;;;;;;9.97;4.90;;;;;;;13.48;76.50;100169.00;5077502;28;20024;-72
2023/05/14 06:49:35;;;;;;;9.50;5.20;;;;;;;13.51;76.61;100161.03;5076593;28;20070;-72
2023/05/14 06:52:01;;;;;;;9.00;4.75;;;;;;;13.55;76.56;100170.66;5082020;28;20028;-72
2023/05/14 06:54:27;;;;;;;8.50;5.07;;;;;;;13.59;76.37;100166.16;5077588;28;20047;-72
2023/05/14 06:56:52;;;;;;;9.97;5.27;;;;;;;13.63;76.09;100166.09;5089703;28;20060;-72
2023/05/14 06:59:18;;;;;;;10.73;5.25;;;;;;;13.68;76.17;100159.84;5076037;28;20024;-73
2023/05/14 07:01:44;;;;;;;10.13;5.20;;;;;;;13.74;76.05;100163.25;5077252;28;20534;-72
2023/05/14 07:04:09;;;;;;;11.97;5.63;;;;;;;13.78;76.09;100158.78;5077090;28;20071;-73
2023/05/14 07:06:42;;;;;;;11.80;5.60;;;;;;;13.84;75.91;100163.06;5079405;28;20274;-72
2023/05/14 07:09:09;;;;;;;11.63;5.40;;;;;;;13.89;75.77;100158.56;5079627;28;20048;-72
2023/05/14 07:11:35;;;;;;;11.35;5.10;;;;;;;13.93;75.82;100157.59;5097126;28;20103;-73
2023/05/14 07:14:00;;;;;;;10.90;5.20;;;;;;;13.95;75.73;100157.56;5080676;28;20040;-73
2023/05/14 07:16:26;;;;;;;12.70;5.43;;;;;;;13.95;75.65;100158.44;5075544;28;20043;-73
2023/05/14 07:18:52;;;;;;;11.93;5.80;;;;;;;13.96;75.75;100157.53;5076996;28;20028;-72
2023/05/14 07:21:17;;;;;;;11.32;5.72;;;;;;;14.01;75.47;100157.47;5090875;28;20038;-72
2023/05/14 07:23:43;;;;;;;9.43;4.93;;;;;;;14.06;75.44;100153.78;5097236;28;20016;-73
2023/05/14 07:26:08;;;;;;;10.40;6.27;;;;;;;14.17;75.16;100147.41;5082241;28;20054;-73
2023/05/14 07:28:34;;;;;;;8.35;4.88;;;;;;;14.28;75.14;100144.53;5076917;28;20028;-73
2023/05/14 07:31:00;;;;;;;11.30;5.80;;;;;;;14.35;74.69;100149.69;5084609;28;20035;-73
2023/05/14 07:33:25;;;;;;;9.77;5.10;;;;;;;14.43;74.50;100138.03;5076924;28;20023;-73
2023/05/14 07:35:52;;;;;;;10.98;5.25;;;;;;;14.45;74.45;100136.22;5076745;28;20484;-73
2023/05/14 07:38:18;;;;;;;8.93;5.20;;;;;;;14.48;74.44;100137.03;5080841;28;20453;-73
2023/05/14 07:40:44;;;;;;;8.23;4.78;;;;;;;14.54;74.10;100138.66;5093971;28;20073;-73
2023/05/14 07:43:10;;;;;;;10.50;5.27;;;;;;;14.61;74.03;100142.03;5075479;28;20028;-73
2023/05/14 07:45:36;;;;;;;10.60;4.53;;;;;;;14.64;73.79;100141.97;5076853;28;20024;-73
2023/05/14 07:48:01;;;;;;;9.40;4.90;;;;;;;14.72;73.79;100141.84;5076403;28;20048;-74
2023/05/14 07:50:27;;;;;;;11.23;5.70;;;;;;;14.75;73.43;100144.41;5082650;28;20020;-73
2023/05/14 07:52:52;;;;;;;10.17;4.70;;;;;;;14.82;73.20;100151.31;5076803;28;20020;-73
2023/05/14 07:55:18;;;;;;;8.30;4.23;;;;;;;14.92;73.24;100155.50;5076733;28;20017;-74
2023/05/14 07:57:44;;;;;;;11.07;4.80;;;;;;;14.97;73.08;100154.50;5076754;28;20052;-73
2023/05/14 08:00:10;;;;;;;9.57;4.57;;;;;;;15.05;72.98;100148.13;5076579;28;20024;-73
2023/05/14 08:02:36;;;;;;;10.05;4.35;;;;;;;15.12;72.58;100154.16;5080641;28;20075;-73
2023/05/14 08:05:02;;;;;;;9.18;4.15;;;;;;;15.18;72.49;100151.34;5084781;28;20020;-74
2023/05/14 08:07:28;;;;;;;8.43;4.13;;;;;;;15.18;72.31;100151.34;5080612;28;20086;-73
2023/05/14 08:09:54;;;;;;;8.27;4.45;;;;;;;15.15;72.42;100159.38;5080810;28;20492;-73
2023/05/14 08:12:20;;;;;;;9.27;4.13;;;;;;;15.15;72.30;100162.03;5091590;28;20104;-73
2023/05/14 08:14:46;;;;;;;9.37;4.43;;;;;;;15.20;71.66;100157.47;5087958;28;20615;-75
2023/05/14 08:17:11;;;;;;;7.95;4.40;;;;;;;15.22;71.86;100160.09;5087776;28;20028;-79
2023/05/14 08:19:37;;;;;;;10.10;5.03;;;;;;;15.27;72.06;100162.59;5083063;28;20554;-79
2023/05/14 08:22:03;;;;;;;7.38;3.90;;;;;;;15.32;71.68;100164.25;5078902;28;20032;-75
2023/05/14 08:24:28;;;;;;;7.80;3.60;;;;;;;15.33;71.78;100160.69;5083715;28;20095;-74
2023/05/14 08:26:54;;;;;;;9.45;3.97;;;;;;;15.31;71.66;100154.53;5080223;28;20028;-78
2023/05/14 08:29:20;;;;;;;9.27;5.03;;;;;;;15.29;71.35;100163.44;5084052;28;20052;-80
2023/05/14 08:31:48;;;;;;;9.10;4.90;;;;;;;15.22;71.97;100157.44;5086125;28;20048;-79
2023/05/14 08:34:13;;;;;;;9.90;5.10;;;;;;;15.17;72.03;100165.50;5084311;28;20086;-76
2023/05/14 08:36:42;;;;;;;10.68;5.63;;;;;;;15.11;72.45;100170.97;5090164;28;20017;-75
2023/05/14 08:39:08;;;;;;;10.18;5.25;;;;;;;15.02;72.80;100168.53;5090107;28;20028;-73
2023/05/14 08:41:34;;;;;;;10.03;5.50;;;;;;;14.95;73.41;100167.81;5086169;28;20024;-74
2023/05/14 08:44:13;;;;;;;10.95;5.32;;;;;;;14.89;73.70;100166.19;5090530;28;20016;-74
2023/05/14 08:46:39;;;;;;;10.45;5.35;;;;;;;14.84;74.09;100167.19;5087064;28;20035;-74
2023/05/14 08:49:14;;;;;;;10.50;5.60;;;;;;;14.80;74.44;100173.47;5084869;28;20621;-74
2023/05/14 08:51:40;;;;;;;9.17;5.50;;;;;;;14.76;74.36;100173.53;5086452;28;20489;-75
2023/05/14 08:54:06;;;;;;;9.18;5.40;;;;;;;14.73;74.38;100178.03;5092673;28;20024;-75
2023/05/14 08:56:32;;;;;;;9.52;5.30;;;;;;;14.70;74.24;100189.53;5080134;28;20031;-75
2023/05/14 08:58:58;;;;;;;10.07;5.55;;;;;;;14.73;74.48;100188.63;5092342;28;20028;-75
2023/05/14 09:01:24;;;;;;;10.83;5.73;;;;;;;14.72;74.88;100178.94;5091405;28;20063;-75
2023/05/14 09:03:51;;;;;;;12.07;6.18;;;;;;;14.76;74.77;100173.53;5090977;28;20503;-76
2023/05/14 09:06:18;;;;;;;10.18;5.80;;;;;;;14.76;74.42;100177.97;5087681;28;20028;-75
2023/05/14 09:08:44;;;;;;;10.90;6.10;;;;;;;14.78;74.59;100181.44;5086761;28;20024;-75
2023/05/14 09:11:10;;;;;;;11.20;5.68;;;;;;;14.77;74.30;100188.53;5083623;28;20028;-76
2023/05/14 09:13:37;;;;;;;13.07;6.00;;;;;;;14.76;74.50;100181.50;5090833;28;20068;-74
2023/05/14 09:16:03;;;;;;;10.82;6.22;;;;;;;14.80;74.40;100184.06;5091833;28;20024;-75
2023/05/14 09:18:35;;;;;;;12.05;5.93;;;;;;;14.83;74.51;100187.53;5085049;28;20035;-79
2023/05/14 09:21:01;;;;;;;10.90;5.90;;;;;;;14.89;74.32;100187.38;5087986;28;20016;-75
2023/05/14 09:23:31;;;;;;;12.47;6.30;;;;;;;14.91;74.74;100188.22;5088664;28;20070;-75
2023/05/14 09:25:57;;;;;;;10.55;6.00;;;;;;;14.97;74.38;100186.31;5087116;28;20049;-73
2023/05/14 09:28:23;;;;;;;13.83;6.67;;;;;;;15.09;74.55;100185.16;5087418;28;20517;-73
2023/05/14 09:30:51;;;;;;;11.27;5.93;;;;;;;15.26;73.77;100182.97;5092704;28;20020;-74
2023/05/14 09:33:27;;;;;;;11.13;5.95;;;;;;;15.42;73.60;100188.75;5085082;28;20114;-72
2023/05/14 09:36:00;;;;;;;11.68;6.10;;;;;;;15.58;73.37;100183.94;5087711;28;20432;-73
2023/05/14 09:38:30;;;;;;;11.77;6.23;;;;;;;15.69;72.75;100182.78;5088155;28;20445;-73
2023/05/14 09:40:56;;;;;;;9.18;5.70;;;;;;;15.75;72.68;100180.81;5085636;28;20488;-73
2023/05/14 09:43:22;;;;;;;9.90;5.68;;;;;;;15.78;72.29;100185.19;5085174;28;20430;-72
2023/05/14 09:45:48;;;;;;;10.70;5.80;;;;;;;15.78;72.05;100186.03;5084438;28;20025;-73
2023/05/14 09:48:13;;;;;;;10.48;5.40;;;;;;;15.78;72.18;100187.84;5084748;28;20040;-77
2023/05/14 09:50:43;;;;;;;9.17;5.20;;;;;;;15.80;72.24;100188.66;5086883;28;20029;-76
2023/05/14 09:53:09;;;;;;;11.43;5.35;;;;;;;15.85;71.66;100185.91;5084785;28;20058;-76
2023/05/14 09:55:35;;;;;;;10.75;5.72;;;;;;;15.83;70.78;100187.72;5088421;28;20021;-79
2023/05/14 09:58:03;;;;;;;8.95;5.00;;;;;;;15.85;70.50;100185.91;5098104;28;20023;-77
2023/05/14 10:00:31;;;;;;;10.38;5.13;;;;;;;15.92;69.69;100185.72;5090502;28;20039;-78
2023/05/14 10:02:58;;;;;;;8.80;4.80;;;;;;;16.00;69.65;100185.50;5095352;28;20024;-76
2023/05/14 10:05:25;;;;;;;8.82;4.25;;;;;;;16.14;69.52;100181.59;5088509;28;20020;-77
2023/05/14 10:07:53;;;;;;;8.57;4.40;;;;;;;16.31;68.92;100184.63;5084813;28;20089;-76
2023/05/14 10:10:39;;;;;;;7.47;3.88;;;;;;;16.48;67.94;100188.56;5083074;28;20028;-76
2023/05/14 10:13:16;;;;;;;8.60;4.10;;;;;;;16.62;67.77;100183.72;5087932;28;20024;-78
2023/05/14 10:16:04;;;;;;;7.87;4.33;;;;;;;16.73;67.13;100178.06;5097074;28;20019;-78
2023/05/14 10:18:38;;;;;;;7.05;4.20;;;;;;;16.91;67.18;100179.25;5108237;28;20503;-77
2023/05/14 10:21:05;;;;;;;8.05;4.63;;;;;;;17.01;66.32;100168.38;5096561;28;20024;-78
2023/05/14 10:23:31;;;;;;;7.28;4.05;;;;;;;17.12;65.83;100170.66;5083935;28;20016;-78
2023/05/14 10:26:00;;;;;;;7.57;3.53;;;;;;;17.26;65.39;100173.75;5097347;28;20506;-78
2023/05/14 10:28:26;;;;;;;6.28;3.78;;;;;;;17.43;65.17;100170.50;5089504;28;20484;-77
2023/05/14 10:30:53;;;;;;;7.57;3.92;;;;;;;17.61;65.33;100169.03;5091156;28;20063;-78
2023/05/14 10:33:19;;;;;;;6.32;3.80;;;;;;;17.75;64.49;100168.53;5096626;28;20091;-79
2023/05/14 10:36:03;;;;;;;8.83;3.63;;;;;;;17.88;63.25;100168.09;5096072;28;20118;-76
2023/05/14 10:38:32;;;;;;;6.80;3.75;;;;;;;18.10;63.56;100173.53;5093649;28;20035;-77
2023/05/14 10:41:13;;;;;;;7.32;3.38;;;;;;;18.30;63.55;100166.56;5097221;28;20051;-76
2023/05/14 10:43:40;;;;;;;6.80;3.15;;;;;;;18.55;61.86;100163.84;5094192;28;20028;-75
2023/05/14 10:46:08;;;;;;;7.78;3.92;;;;;;;18.69;60.96;100155.31;5094370;28;20111;-78
2023/05/14 10:48:36;;;;;;;10.53;3.10;;;;;;;18.88;61.02;100151.91;5095945;28;20101;-77
2023/05/14 10:51:01;;;;;;;5.40;3.05;;;;;;;19.03;61.08;100147.78;5088775;28;20020;-75
2023/05/14 10:53:41;;;;;;;6.90;3.22;;;;;;;19.09;60.56;100144.84;5094042;28;20031;-75
2023/05/14 10:56:09;;;;;;;7.25;3.40;;;;;;;19.16;59.21;100154.31;5079325;28;20021;-77
2023/05/14 10:58:42;;;;;;;5.63;3.23;;;;;;;19.09;59.16;100150.19;5093465;28;20025;-78
2023/05/14 11:01:10;;;;;;;6.68;2.97;;;;;;;19.20;58.86;100153.28;5106098;28;20020;-78
2023/05/14 11:03:43;;;;;;;6.15;2.85;;;;;;;19.29;58.04;100152.03;5094072;28;20052;-75
2023/05/14 11:06:11;;;;;;;7.03;3.10;;;;;;;19.33;56.85;100142.06;5086086;28;20021;-77
2023/05/14 11:08:40;;;;;;;6.13;3.20;;;;;;;19.21;57.06;100143.44;5092457;28;20031;-76
2023/05/14 11:11:07;;;;;;;7.53;3.30;;;;;;;19.09;58.16;100139.50;5077018;28;20043;-76
2023/05/14 11:13:33;;;;;;;5.25;3.17;;;;;;;19.11;57.91;100145.63;5082724;28;20020;-75
2023/05/14 11:16:00;;;;;;;5.90;3.00;;;;;;;19.13;58.04;100142.91;5076729;28;20078;-76
2023/05/14 11:18:30;;;;;;;6.53;3.08;;;;;;;19.13;58.00;100141.09;5077764;28;20077;-78
2023/05/14 11:21:00;;;;;;;5.30;2.70;;;;;;;19.18;58.10;100141.81;5083359;28;20032;-77